x

8461490 - New London, Ct (nlnc3) Weather Station

9:18am - Tue 21st Nov 2017 All times are EST. -5 hours from GMT.

  • Wind
    14mph, 21mph gusts
  • Sea Temp 55°f
  • Air Temp 53°f
  • Sea Pressure 1020.8mb
  • 8461490 - New London, Ct
  • 8461490 - New London, Ct

More Historic Weather Station data

Upgrade to MSW Pro to gain access to the past 30 days of data for over 8000 Wavebouys and Weather Stations around the globe.

Join

Comparision Forecast

View Surf forecast
   
Tue 11/21 9:18am 14 21 mph 1020.8mb 55f 53f
9:12am 11 20 mph 1020.9mb 55f 53f
9:06am 13 21 mph 1020.8mb 55f 53f
9:00am 11 20 mph 1020.9mb 55f 53f
8:54am 13 22 mph 1020.9mb 55f 52f
8:48am 10 17 mph 1020.9mb 54f 52f
8:42am 7 16 mph 1020.9mb 54f 52f
8:36am 10 17 mph 1020.8mb 54f 52f
8:30am 10 18 mph 1020.8mb 54f 52f
8:24am 10 14 mph 1020.9mb 54f 51f
8:18am 11 16 mph 1020.9mb 54f 51f
8:12am 8 13 mph 1020.9mb 55f 51f
8:06am 9 15 mph 1020.8mb 54f 51f
8:00am 7 11 mph 1020.8mb 54f 50f
7:54am 6 11 mph 1020.8mb 54f 50f
7:48am 7 11 mph 1020.8mb 55f 49f
7:42am 6 11 mph 1020.8mb 55f 49f
7:36am 5 7 mph 1020.8mb 55f 49f
7:30am 7 9 mph 1020.8mb 55f 48f
7:24am 7 11 mph 1020.8mb 55f 48f
7:18am 7 10 mph 1020.7mb 55f 48f
7:12am 5 8 mph 1020.6mb 56f 47f
7:06am 5 8 mph 1020.6mb 56f 47f
7:00am 6 10 mph 1020.5mb 55f 47f
6:54am 6 14 mph 1020.5mb 55f 47f
6:48am 8 11 mph 1020.4mb 56f 47f
6:42am 5 8 mph 1020.3mb 56f 47f
6:36am 6 10 mph 1020.2mb 56f 47f
6:30am 6 10 mph 1020.1mb 56f 47f
6:24am 7 14 mph 1020.1mb 56f 47f
6:18am 6 11 mph 1020.1mb 56f 47f
6:12am 7 14 mph 1020mb 56f 47f
6:06am 6 14 mph 1019.9mb 56f 47f
6:00am 7 10 mph 1019.9mb 55f 47f
5:54am 9 14 mph 1019.9mb 55f 47f
5:48am 6 11 mph 1019.9mb 55f 47f
5:42am 6 11 mph 1019.9mb 55f 47f
5:36am 8 11 mph 1019.9mb 55f 47f
5:30am 7 11 mph 1019.8mb 55f 47f
5:24am 6 10 mph 1019.9mb 55f 46f
5:18am 7 13 mph 1019.9mb 55f 46f
5:12am 8 13 mph 1019.8mb 54f 47f
5:06am 9 14 mph 1019.9mb 54f 46f
5:00am 5 13 mph 1019.9mb 53f 46f
4:54am 7 10 mph 1019.9mb 53f 46f
4:48am 8 11 mph 1019.9mb 53f 46f
4:42am 6 9 mph 1019.9mb 53f 46f
4:36am 8 13 mph 1019.9mb 53f 46f
4:30am 6 9 mph 1019.9mb 53f 46f
4:24am 7 11 mph 1019.9mb 53f 46f
4:18am 5 7 mph 1020mb 53f 46f
4:12am 6 8 mph 1019.9mb 53f 46f
4:06am 6 9 mph 1019.9mb 54f 46f
4:00am 6 9 mph 1020mb 54f 46f
3:54am 5 9 mph 1019.8mb 54f 45f
3:48am 3 6 mph 1019.9mb 54f 45f
3:42am 3 7 mph 1019.8mb 54f 44f
3:36am 2 5 mph 1019.8mb 54f 44f
3:30am 2 5 mph 1019.7mb 54f 43f
3:24am 2 5 mph 1019.7mb 54f 44f
3:18am  -  2 mph 1019.7mb 55f 43f
3:12am 1 2 mph 1019.7mb 55f 43f
3:06am 1 2 mph 1019.7mb 55f 43f
3:00am 1 3 mph 1019.7mb 55f 42f
2:54am 1 2 mph 1019.8mb 55f 42f
2:48am 1 5 mph 1019.8mb 55f 42f
2:42am 3 5 mph 1019.9mb 55f 42f
2:36am 2 5 mph 1019.9mb 55f 42f
2:30am 2 3 mph 1020mb 55f 42f
2:24am 2 3 mph 1020.1mb 55f 42f
2:18am 1 3 mph 1020.1mb 55f 42f
2:12am 2 3 mph 1020.1mb 55f 41f
2:06am 1 2 mph 1020mb 55f 41f
2:00am  -  2 mph 1020mb 55f 42f
1:54am 2 2 mph 1020mb 55f 42f
1:48am  -  2 mph 1020mb 54f 42f
1:42am 2 3 mph 1019.9mb 54f 43f
1:36am 2 2 mph 1019.9mb 55f 42f
1:30am  -  2 mph 1019.8mb 55f 42f
1:24am 2 3 mph 1019.8mb 55f 43f
1:18am  -  2 mph 1019.7mb 55f 42f
1:12am  -  1 mph 1019.6mb 55f 42f
1:06am  -  5 mph 1019.6mb 55f 43f
1:00am 2 3 mph 1019.8mb 55f 43f
12:54am 1 5 mph 1019.8mb 55f 43f
12:48am 1 6 mph 1019.8mb 55f 43f
12:42am 3 8 mph 1019.9mb 55f 43f
12:36am 7 9 mph 1019.7mb 56f 44f
12:30am 3 8 mph 1019.6mb 56f 43f
12:24am 3 6 mph 1019.8mb 56f 43f
12:18am 6 8 mph 1019.8mb 55f 43f
12:12am 5 6 mph 1019.8mb 55f 43f
12:06am 3 7 mph 1019.7mb 56f 43f
12:00am 3 6 mph 1019.6mb 56f 43f
Mon 11/20 11:54pm 3 6 mph 1019.6mb 55f 43f
11:48pm 6 10 mph 1019.7mb 55f 43f
11:42pm 6 9 mph 1019.7mb 56f 44f
11:36pm 3 7 mph 1019.7mb 55f 43f
11:30pm 5 10 mph 1019.6mb 56f 43f
11:24pm 6 8 mph 1019.6mb 56f 44f
11:18pm 6 11 mph 1019.5mb 56f 44f
11:12pm 7 11 mph 1019.6mb 56f 44f
11:06pm 5 13 mph 1019.6mb 55f 44f
11:00pm 3 11 mph 1019.5mb 55f 44f
10:54pm 7 14 mph 1019.5mb 55f 44f
10:48pm 6 10 mph 1019.4mb 56f 44f
10:42pm 7 13 mph 1019.4mb 56f 44f
10:36pm 6 10 mph 1019.3mb 55f 44f
10:30pm 3 11 mph 1019.3mb 55f 44f
10:24pm 3 9 mph 1019.4mb 55f 44f
10:18pm 7 14 mph 1019.3mb 55f 44f
10:12pm 5 8 mph 1019.2mb 55f 44f
10:06pm 5 8 mph 1019.2mb 55f 44f
10:00pm 5 8 mph 1019.2mb 55f 44f
9:54pm 5 10 mph 1019.2mb 55f 44f
9:48pm 3 10 mph 1019.1mb 55f 44f
9:42pm 6 13 mph 1019mb 55f 44f
9:36pm 5 9 mph 1018.9mb 55f 44f
9:30pm 6 13 mph 1018.8mb 55f 44f
9:24pm 9 14 mph 1018.8mb 55f 44f
9:18pm 6 11 mph 1018.7mb 55f 44f
9:12pm 6 13 mph 1018.7mb 55f 44f
9:06pm 7 15 mph 1018.7mb 55f 44f
9:00pm 13 18 mph 1018.7mb 55f 45f
8:54pm 9 14 mph 1018.7mb 54f 45f
8:48pm 6 11 mph 1018.6mb 53f 45f
8:42pm 6 14 mph 1018.6mb 54f 45f
8:36pm 6 14 mph 1018.6mb 54f 45f
8:30pm 7 11 mph 1018.5mb 55f 45f
8:24pm 6 13 mph 1018.4mb 54f 45f
8:18pm 6 18 mph 1018.4mb 54f 45f
8:12pm 9 20 mph 1018.4mb 53f 45f
8:06pm 6 10 mph 1018.3mb 54f 45f
8:00pm 8 15 mph 1018.3mb 54f 45f
7:48pm 6 11 mph 1018.2mb 54f 44f
7:42pm 7 11 mph 1018.2mb 54f 44f
7:36pm 7 10 mph 1018.1mb 54f 44f
7:30pm 6 9 mph 1018mb 55f 44f
7:24pm 3 7 mph 1018mb 55f 44f
7:18pm 2 6 mph 1017.9mb 54f 44f
7:12pm 3 7 mph 1017.9mb 56f 44f
7:06pm 5 7 mph 1017.8mb 55f 44f
7:00pm 3 8 mph 1017.7mb 56f 44f
6:54pm 6 10 mph 1017.6mb 56f 44f
6:48pm 6 10 mph 1017.5mb 55f 44f
6:42pm 5 11 mph 1017.4mb 55f 44f
6:36pm 6 10 mph 1017.4mb 55f 44f
6:30pm 5 9 mph 1017.4mb 54f 43f
6:24pm 5 9 mph 1017.4mb 53f 43f
6:18pm 3 9 mph 1017.3mb 51f 43f
6:12pm 5 7 mph 1017.3mb 51f 43f
6:06pm 2 8 mph 1017.3mb 51f 43f
6:00pm 5 8 mph 1017.3mb 51f 43f
5:54pm 2 7 mph 1017.2mb 51f 43f
5:48pm 3 8 mph 1017.2mb 50f 43f
5:42pm 6 9 mph 1017.1mb 50f 43f
5:36pm 3 9 mph 1017mb 50f 43f
5:30pm 7 9 mph 1016.9mb 51f 43f
5:24pm 5 10 mph 1016.9mb 51f 43f
5:18pm 3 11 mph 1016.7mb 51f 43f
5:12pm 6 9 mph 1016.7mb 51f 43f
5:06pm 5 7 mph 1016.6mb 51f 43f
5:00pm 6 10 mph 1016.5mb 51f 43f
4:54pm 5 7 mph 1016.4mb 50f 43f
4:48pm 3 9 mph 1016.4mb 50f 43f
4:42pm 5 9 mph 1016.3mb 50f 43f
4:36pm 5 11 mph 1016.2mb 50f 43f
4:30pm 5 8 mph 1016.2mb 52f 43f
4:24pm 3 14 mph 1016.1mb 52f 43f
4:18pm 8 16 mph 1016mb 53f 43f
4:12pm 9 17 mph 1015.8mb 53f 43f
4:06pm 8 14 mph 1015.8mb 53f 43f
4:00pm 10 20 mph 1015.8mb 53f 44f
3:54pm 9 17 mph 1015.6mb 53f 44f
3:48pm 13 17 mph 1015.6mb 53f 44f
3:42pm 10 20 mph 1015.6mb 53f 44f
3:36pm 11 23 mph 1015.5mb 52f 44f
3:30pm 11 22 mph 1015.4mb 53f 44f
3:24pm 11 16 mph 1015.4mb 53f 44f
3:18pm 5 10 mph 1015.3mb 53f 45f
3:12pm 8 15 mph 1015.3mb 54f 44f
3:06pm 10 18 mph 1015.1mb 54f 44f
3:00pm 9 23 mph 1015.1mb 54f 44f
2:54pm 10 16 mph 1015.1mb 53f 45f
2:48pm 8 18 mph 1014.8mb 54f 45f
2:42pm 11 20 mph 1014.7mb 54f 45f
2:36pm 8 17 mph 1014.7mb 54f 45f
2:30pm 8 14 mph 1014.6mb 54f 44f
2:24pm 9 15 mph 1014.7mb 53f 43f
2:18pm 6 11 mph 1014.6mb 53f 45f
2:12pm 7 16 mph 1014.5mb 54f 45f
2:06pm 11 22 mph 1014.4mb 54f 44f
2:00pm 7 17 mph 1014.5mb 55f 44f
1:54pm 13 21 mph 1014.4mb 55f 44f
1:48pm 10 17 mph 1014.4mb 54f 44f
1:42pm 8 16 mph 1014.3mb 54f 44f
1:36pm 13 20 mph 1014.4mb 55f 44f
1:30pm 7 15 mph 1014.4mb 55f 44f
1:24pm 11 21 mph 1014.3mb 55f 44f
1:18pm 13 18 mph 1014.4mb 55f 44f
1:12pm 13 18 mph 1014.4mb 55f 44f
1:06pm 7 16 mph 1014.5mb 55f 44f
1:00pm 11 21 mph 1014.4mb 56f 44f
12:54pm 7 14 mph 1014.4mb 55f 44f
12:48pm 7 15 mph 1014.4mb 55f 44f
12:42pm 6 16 mph 1014.4mb 55f 44f
12:36pm 6 14 mph 1014.3mb 55f 44f
12:30pm 8 14 mph 1014.4mb 55f 43f
12:24pm 11 16 mph 1014.2mb 55f 42f
12:18pm 8 15 mph 1014.3mb 55f 42f
12:12pm 9 16 mph 1014.3mb 55f 43f
12:06pm 5 16 mph 1014.2mb 55f 44f
12:00pm 8 13 mph 1014.3mb 55f 44f
11:54am 5 11 mph 1014.4mb 55f 43f
11:48am 6 14 mph 1014.4mb 55f 43f
11:42am 7 14 mph 1014.4mb 55f 42f
11:36am 7 15 mph 1014.6mb 55f 41f
11:30am 7 15 mph 1014.6mb 55f 41f
11:24am 8 20 mph 1014.6mb 56f 42f
11:18am 8 17 mph 1014.6mb 56f 41f
11:12am 13 21 mph 1014.6mb 56f 41f
11:06am 9 17 mph 1014.7mb 56f 41f
11:00am 3 10 mph 1014.8mb 56f 42f
10:54am 8 14 mph 1014.9mb 56f 41f
10:48am 6 16 mph 1014.9mb 56f 40f
10:42am 7 14 mph 1015mb 56f 40f
10:36am 8 16 mph 1015.1mb 56f 40f
10:30am 10 18 mph 1015.1mb 56f 40f
10:24am 10 17 mph 1015.1mb 55f 40f
10:18am 11 16 mph 1015mb 55f 40f
10:12am 11 21 mph 1014.9mb 56f 39f
10:06am 7 22 mph 1015mb 56f 40f
10:00am 9 16 mph 1014.9mb 56f 40f
9:54am 9 17 mph 1014.9mb 56f 40f
9:48am 6 16 mph 1014.8mb 56f 41f
9:42am 10 16 mph 1014.7mb 56f 40f
9:36am 6 18 mph 1014.7mb 56f 40f
9:30am 7 20 mph 1014.7mb 56f 40f
9:24am 8 20 mph 1014.7mb 56f 39f
9:18am 6 14 mph 1014.6mb 56f 39f
9:12am 10 15 mph 1014.5mb 55f 39f
9:06am 9 16 mph 1014.6mb 55f 39f
9:00am 8 16 mph 1014.6mb 56f 39f
8:54am 8 14 mph 1014.6mb 56f 39f
8:48am 9 14 mph 1014.6mb 56f 38f
8:42am 7 13 mph 1014.5mb 56f 38f
8:36am 8 13 mph 1014.4mb 56f 38f
8:30am 5 8 mph 1014.4mb 56f 38f
8:24am 6 10 mph 1014.4mb 56f 37f
8:18am 3 7 mph 1014.3mb 55f 38f
8:12am 3 6 mph 1014.2mb 55f 37f
8:06am 3 7 mph 1014.1mb 55f 37f
8:00am 3 6 mph 1014.1mb 56f 37f
7:54am 3 6 mph 1014mb 55f 36f
7:48am 2 5 mph 1013.9mb 55f 36f
7:42am 1 6 mph 1013.9mb 55f 35f
7:36am 3 6 mph 1013.8mb 55f 35f
7:30am 1 6 mph 1013.7mb 55f 35f
7:24am 2 5 mph 1013.6mb 55f 35f
7:18am 1 3 mph 1013.5mb 55f 34f
7:12am  -  3 mph 1013.4mb 55f 34f
7:06am  -  2 mph 1013.3mb 55f 33f
7:00am  -  3 mph 1013.2mb 55f 33f
6:54am 2 2 mph 1013.1mb 55f 34f
6:48am 1 2 mph 1013mb 55f 34f
6:42am 1 2 mph 1012.8mb 55f 33f
6:36am 1 2 mph 1012.8mb 55f 33f
6:30am 1 1 mph 1012.6mb 55f 33f
6:24am  -  1 mph 1012.5mb 55f 33f
6:18am 1 2 mph 1012.4mb 55f 34f
6:12am 1 3 mph 1012.3mb 55f 34f
6:06am 2 5 mph 1012.1mb 55f 34f
6:00am 2 5 mph 1012mb 55f 34f
5:54am 1 5 mph 1011.9mb 55f 34f
5:48am 3 5 mph 1011.8mb 55f 34f
5:42am 1 3 mph 1011.7mb 53f 34f
5:36am 1 6 mph 1011.6mb 53f 35f
5:30am 2 6 mph 1011.4mb 52f 35f
5:24am 3 7 mph 1011.2mb 52f 35f
5:18am 5 9 mph 1011.2mb 52f 35f
5:12am 3 6 mph 1011mb 52f 35f
5:06am 3 6 mph 1011mb 50f 35f
5:00am 3 7 mph 1011mb 50f 35f
4:54am 5 8 mph 1010.9mb 51f 35f
4:48am 3 8 mph 1010.7mb 51f 35f
4:42am 2 7 mph 1010.6mb 52f 35f
4:36am 3 6 mph 1010.5mb 52f 35f
4:30am 2 6 mph 1010.4mb 52f 35f
4:24am 2 5 mph 1010.2mb 52f 35f
4:18am 2 6 mph 1010.1mb 52f 35f
4:12am 1 6 mph 1010mb 52f 35f
4:06am 3 9 mph 1009.9mb 52f 35f
4:00am 5 10 mph 1009.9mb 53f 35f
3:54am 3 8 mph 1009.8mb 54f 36f
3:48am 5 10 mph 1009.7mb 53f 36f
3:42am 6 10 mph 1009.3mb 52f 37f
3:36am 5 9 mph 1009.4mb 52f 37f
3:30am 7 11 mph 1009.3mb 53f 37f
3:24am 3 6 mph 1009.2mb 53f 36f
3:18am 2 3 mph 1009mb 53f 36f
3:12am 2 3 mph 1008.8mb 53f 36f
3:06am 2 3 mph 1008.7mb 53f 36f
3:00am 2 3 mph 1008.6mb 53f 36f
2:54am 1 2 mph 1008.6mb 53f 36f
2:48am 1 3 mph 1008.4mb 53f 36f
2:42am 1 3 mph 1008.4mb 53f 36f
2:36am 2 3 mph 1008.3mb 53f 37f
2:30am 2 6 mph 1008.2mb 53f 37f
2:24am 5 7 mph 1008.1mb 53f 37f
2:18am 2 7 mph 1007.9mb 53f 37f
2:12am 6 10 mph 1007.8mb 54f 38f
2:06am 6 8 mph 1007.6mb 54f 38f
2:00am 5 9 mph 1007.6mb 54f 38f
1:54am 6 9 mph 1007.4mb 54f 38f
1:48am 5 8 mph 1007.3mb 54f 38f
1:42am 6 9 mph 1007.3mb 54f 38f
1:36am 6 9 mph 1007.3mb 54f 38f
1:30am 6 9 mph 1007.2mb 54f 38f
1:24am 2 7 mph 1007.1mb 54f 38f
1:18am 3 6 mph 1007mb 54f 38f
1:12am 3 9 mph 1007mb 54f 38f
1:06am 5 9 mph 1006.9mb 54f 38f
1:00am 5 7 mph 1006.9mb 54f 38f
12:54am 5 6 mph 1006.8mb 54f 38f
12:48am 3 7 mph 1006.7mb 54f -
12:42am 3 5 mph 1006.6mb 54f -
12:36am 1 5 mph 1006.4mb 54f -
12:30am 2 5 mph 1006.4mb 54f 38f
12:24am 2 5 mph 1006.5mb 54f 38f
12:18am 2 9 mph 1006.4mb 54f 38f
12:12am 3 6 mph 1006.4mb 54f 38f
12:06am 2 7 mph 1006.3mb 54f 38f
12:00am 2 6 mph 1006.3mb 54f 38f
Sun 11/19 11:54pm 3 6 mph 1006.3mb 54f 38f
11:48pm 3 6 mph 1006.3mb 55f 38f
11:42pm 2 5 mph 1006.2mb 55f 38f
11:36pm 2 7 mph 1006.2mb 55f 38f
11:30pm 3 6 mph 1006.2mb 55f 38f
11:24pm 3 5 mph 1006.2mb 55f 38f
11:18pm 1 3 mph 1006.1mb 55f 38f
11:12pm  -  2 mph 1006.1mb 55f 38f
11:06pm  -  3 mph 1006.1mb 55f 38f
11:00pm 2 3 mph 1006.1mb 55f 38f
10:54pm 2 3 mph 1005.9mb 55f 38f
10:48pm 2 2 mph 1005.8mb 55f 38f
10:42pm 1 3 mph 1005.8mb 55f 39f
10:36pm 2 3 mph 1005.8mb 55f 39f
10:30pm 2 3 mph 1005.8mb 55f 39f
10:24pm 1 6 mph 1005.7mb 55f 39f
10:18pm 1 6 mph 1005.6mb 55f 39f
10:12pm 2 3 mph 1005.6mb 54f 39f
10:06pm 2 5 mph 1005.5mb 55f 40f
10:00pm  -  3 mph 1005.4mb 55f 39f
9:54pm 1 5 mph 1005.2mb 54f 40f
9:48pm  -  3 mph 1005.2mb 54f 40f
9:42pm 1 6 mph 1005.3mb 54f 40f
9:36pm 2 5 mph 1005.2mb 55f 40f
9:30pm 2 5 mph 1005mb 55f 41f
9:24pm 3 6 mph 1005mb 55f 41f
9:18pm 2 5 mph 1005mb 54f 41f
9:12pm 3 6 mph 1004.9mb 54f 41f
9:06pm 3 6 mph 1004.8mb 52f 41f
9:00pm 3 7 mph 1004.7mb 52f 41f
8:54pm 3 5 mph 1004.6mb 51f 41f
8:48pm 1 2 mph 1004.5mb 52f 41f
8:42pm 2 5 mph 1004.4mb 52f 41f
8:36pm 3 7 mph 1004.4mb 52f 42f
8:30pm 3 6 mph 1004.3mb 52f 42f
8:24pm 2 5 mph 1004.2mb 52f 42f
8:18pm 1 6 mph 1004mb 52f 42f
8:12pm 3 8 mph 1004mb 52f 42f
8:06pm 3 8 mph 1003.9mb 52f 42f
8:00pm 5 10 mph 1003.8mb 53f 42f
7:54pm 5 11 mph 1003.7mb 53f 42f
7:48pm 5 11 mph 1003.7mb 53f 42f
7:42pm 2 8 mph 1003.6mb 52f 43f
7:36pm 6 11 mph 1003.6mb 52f 43f
7:30pm 5 8 mph 1003.6mb 52f 43f
7:24pm 7 9 mph 1003.4mb 52f 43f
7:18pm 5 9 mph 1003.5mb 52f 43f
7:12pm 7 10 mph 1003.4mb 52f 43f
7:06pm 2 6 mph 1003.3mb 52f 43f
7:00pm 3 10 mph 1003mb 52f 43f
6:54pm 5 11 mph 1002.8mb 52f 43f
6:48pm 6 17 mph 1002.7mb 52f 43f
6:42pm 6 17 mph 1002.6mb 52f 43f
6:36pm 8 18 mph 1002.6mb 52f 43f
6:30pm 8 20 mph 1002.6mb 52f 44f
6:24pm 8 16 mph 1002.5mb 52f 44f
6:18pm 8 15 mph 1002.3mb 52f 44f
6:12pm 8 11 mph 1002.3mb 52f 44f
6:06pm 7 17 mph 1002.1mb 52f 44f
6:00pm 10 17 mph 1001.9mb 52f 44f
5:54pm 7 11 mph 1001.7mb 52f 44f
5:48pm 3 17 mph 1001.7mb 52f 44f
5:42pm 8 16 mph 1001.5mb 52f 44f
5:36pm 7 20 mph 1001.4mb 52f 44f
5:30pm 9 17 mph 1001.1mb 52f 44f
5:24pm 7 18 mph 1000.8mb 52f 45f
5:18pm 9 17 mph 1000.4mb 52f 45f
5:12pm 6 11 mph 1000.3mb 52f 45f
5:06pm 8 21 mph 1000.2mb 52f 45f
5:00pm 7 14 mph 1000.1mb 52f 45f
4:54pm 8 17 mph 999.9mb 52f 46f
4:48pm 5 11 mph 999.8mb 52f 46f
4:42pm 6 15 mph 999.6mb 52f 46f
4:36pm 7 17 mph 999.4mb 52f 46f
4:30pm 10 18 mph 999.2mb 52f 46f
4:24pm 5 9 mph 999.1mb 52f 46f
4:18pm 6 14 mph 998.8mb 52f 47f
4:12pm 6 15 mph 998.6mb 52f 47f
4:06pm 8 20 mph 998.4mb 52f 47f
4:00pm 8 14 mph 998.2mb 52f 48f
3:54pm 6 14 mph 998.1mb 52f 48f
3:48pm 11 18 mph 998mb 52f 48f
3:42pm 7 14 mph 997.8mb 53f 49f
3:36pm 8 22 mph 997.7mb 53f 49f
3:30pm 7 22 mph 997.4mb 52f 49f
3:24pm 7 21 mph 997.4mb 52f 49f
3:18pm 10 28 mph 997.1mb 53f 49f
3:12pm 14 23 mph 996.9mb 53f 49f
3:06pm 9 21 mph 996.7mb 53f 50f
3:00pm 11 22 mph 996.5mb 53f 50f
2:54pm 8 20 mph 996.3mb 53f 50f
2:48pm 9 29 mph 996mb 53f 50f
2:42pm 11 21 mph 995.9mb 53f 50f
2:36pm 14 28 mph 995.7mb 53f 50f
2:30pm 13 25 mph 995.7mb 53f 50f
2:24pm 13 23 mph 995.6mb 53f 50f
2:18pm 10 25 mph 995.5mb 53f 50f
2:12pm 8 15 mph 995.3mb 53f 50f
2:06pm 8 26 mph 995.2mb 53f 50f
2:00pm 9 22 mph 995.2mb 53f 50f
1:54pm 15 25 mph 995.1mb 53f 50f
1:48pm 7 15 mph 994.9mb 53f 51f
1:42pm 6 21 mph 994.7mb 53f 52f
1:36pm 8 20 mph 994.6mb 53f 51f
1:30pm 9 16 mph 994.4mb 53f 51f
1:24pm 9 22 mph 994.3mb 53f 52f
1:18pm 10 23 mph 994.2mb 53f 51f
1:12pm 13 23 mph 994mb 53f 52f
1:06pm 11 22 mph 993.8mb 53f 53f
1:00pm 9 21 mph 993.7mb 53f 53f
12:54pm 9 24 mph 993.4mb 53f 52f
12:48pm 11 22 mph 993.3mb 54f 52f
12:42pm 10 24 mph 993.1mb 54f 53f
12:36pm 11 21 mph 992.9mb 54f 52f
12:30pm 11 21 mph 992.9mb 54f 52f
12:24pm 11 16 mph - 54f 52f
12:18pm 10 20 mph - 54f 53f
12:12pm 10 18 mph - 54f 53f
12:06pm 8 16 mph - 54f 53f
12:00pm 10 17 mph - 54f 53f
11:54am 10 26 mph - 54f 54f
11:48am 9 23 mph - 54f 54f
11:42am 11 24 mph - 54f 54f
11:36am 9 21 mph - 55f 54f
11:30am 11 28 mph - 55f 54f
11:24am 13 22 mph - 55f 54f
11:18am 15 26 mph - 55f 55f
11:12am 15 26 mph - 55f 55f
11:06am 15 24 mph - 55f 56f
11:00am 15 29 mph - 55f 56f
10:54am 15 25 mph - 55f 58f
10:48am 11 21 mph - 55f 58f
10:42am 8 23 mph - 54f 59f
10:36am 13 23 mph - 54f 58f
10:30am 13 18 mph - 55f 58f
10:24am 14 24 mph - 55f 58f
10:18am 14 26 mph - 54f 58f
10:12am 11 23 mph - 54f 57f
10:06am 14 21 mph - 55f 57f
10:00am 20 26 mph - 55f 57f
9:54am 13 16 mph - 55f 57f
9:48am 11 21 mph - 55f 57f
8:54am 10 20 mph - 54f 58f
8:48am 11 22 mph - 54f 58f